createdAt,value
2022-10-24T00:09:52.552Z,27.667
2022-10-24T00:24:54.869Z,27.246
2022-10-24T00:39:56.722Z,26.377
2022-10-24T00:54:58.573Z,26.058
2022-10-24T01:10:00.442Z,25.688
2022-10-24T01:25:02.269Z,25.312
2022-10-24T01:40:04.304Z,24.957
2022-10-24T01:55:06.148Z,24.686
2022-10-24T02:10:07.997Z,24.371
2022-10-24T02:25:09.837Z,23.399
2022-10-24T02:40:11.860Z,23.631
2022-10-24T02:55:13.685Z,23.587
2022-10-24T03:10:15.510Z,24.118
2022-10-24T03:25:17.370Z,23.542
2022-10-24T03:40:19.211Z,23.44
2022-10-24T03:55:21.032Z,24.495
2022-10-24T04:10:22.896Z,23.756
2022-10-24T04:25:24.769Z,23.81
2022-10-24T04:40:26.632Z,24.625
2022-10-24T04:55:28.442Z,23.429
2022-10-24T05:10:30.291Z,23.395
2022-10-24T05:25:32.141Z,23.649
2022-10-24T05:40:33.991Z,23.555
2022-10-24T05:55:35.848Z,23.818
2022-10-24T06:10:37.710Z,24.225
2022-10-24T06:25:39.633Z,24.339
2022-10-24T06:40:41.491Z,24.175
2022-10-24T06:52:25.645Z,23.531
2022-10-24T07:07:27.496Z,23.994
2022-10-24T07:22:31.449Z,22.933
2022-10-24T07:37:34.589Z,24.088
2022-10-24T07:52:36.450Z,23.403
2022-10-24T08:07:38.350Z,24.452
2022-10-24T08:22:40.201Z,24.337
2022-10-24T08:37:42.095Z,24.98
2022-10-24T08:52:44.489Z,25.354
2022-10-24T09:07:46.750Z,27.199
2022-10-24T09:22:49.011Z,25.908
2022-10-24T09:37:51.275Z,25.904
2022-10-24T09:52:53.277Z,26.031
2022-10-24T10:07:55.104Z,26.704
2022-10-24T10:22:56.941Z,27.244
2022-10-24T10:37:58.868Z,27.037
2022-10-24T10:53:00.692Z,27.393
2022-10-24T11:08:02.597Z,26.95
2022-10-24T11:23:04.459Z,29.339
2022-10-24T11:38:06.400Z,27.583
2022-10-24T11:53:08.237Z,28.088
2022-10-24T12:08:10.092Z,27.884
2022-10-24T12:23:12.002Z,29.02
2022-10-24T12:38:13.832Z,27.72
2022-10-24T12:53:15.666Z,27.807
2022-10-24T13:08:17.519Z,27.902
2022-10-24T13:23:19.387Z,29.709
2022-10-24T13:53:29.745Z,28.386
2022-10-24T14:08:32.770Z,28.27
2022-10-24T14:23:34.608Z,29.928
2022-10-24T14:38:36.522Z,28.524
2022-10-24T14:53:38.376Z,28.754
2022-10-24T15:23:42.054Z,29.057
2022-10-24T15:38:44.382Z,28.623
2022-10-24T15:53:46.213Z,30.704
2022-10-24T16:08:48.048Z,30.63
2022-10-24T16:38:52.989Z,28.428
2022-10-24T16:53:54.819Z,27.892
2022-10-24T17:08:56.662Z,29.503
2022-10-24T17:23:58.675Z,27.366
2022-10-24T17:39:00.569Z,27.586
2022-10-24T17:54:02.496Z,28.916
2022-10-24T18:09:04.463Z,28.791
2022-10-24T18:24:06.298Z,30.687
2022-10-24T18:39:08.142Z,28.413
2022-10-24T18:54:10.137Z,27.995
2022-10-24T19:09:12.117Z,27.808
2022-10-24T19:24:13.978Z,28.278
2022-10-24T19:39:15.828Z,26.164
2022-10-24T19:54:17.897Z,25.731
2022-10-24T20:09:19.745Z,25.543
2022-10-24T20:24:21.612Z,25.333
2022-10-24T20:39:23.442Z,24.422
2022-10-24T20:54:25.355Z,24.21
2022-10-24T21:09:27.186Z,24.461
2022-10-24T21:24:29.034Z,23.938
2022-10-24T21:39:30.904Z,23.706
2022-10-24T21:54:32.875Z,23.538
2022-10-24T22:09:34.742Z,23.687
2022-10-24T22:24:36.613Z,23.1
2022-10-24T22:39:38.441Z,22.932
2022-10-24T22:54:40.241Z,23.052
2022-10-24T23:09:42.056Z,22.596
2022-10-24T23:24:43.919Z,24.525
2022-10-24T23:39:45.747Z,23.568
2022-10-24T23:45:04.328Z,23.566
